Appleton, New York
Current Conditions -  °F | °C
As of 1:53 AM on Saturday 22 Nov 2014 (Local Time) from KIAG Reporting Station
Clear Clear  
Wind Chill: 15°   Ceiling: Unl
Heat Index: 28°   Visibility: 10mi
Dew Point: 18°   Wind: 20mph
Humidity: 66%   Direction: 210°SSW
Pressure: 30.31"   Gusts: 26mph
Location:  43.33°N, 78.65°W
Report Text: KIAG 220653Z AUTO 21017G23KT 10SM CLR M02/M08 A3031 RMK AO2 SLP283 T10221078
Loading
Personal Weather Stations






























Interactive Weather Map New forecast layout! Learn more

10-Day Weather Forecast

Advertisements
Track Severe Weather on mobile